Weather at Phoenix Baptist Hospital Heliport

Public forecast

Using degrees Fahrenheit for public forecast. Weather courtesy of forecast.io.

Closest aviation weather report (METAR) to Phoenix Baptist Hospital Heliport

Report is more than 6 hours old.

Closest report is Phoenix Sky Harbor International Airport, 7.2 nm (13.4 km) SE.

2024/06/24 05:51 (retrieved 1 day ago)

KPHX 240551Z 25012KT 10SM FEW110 SCT130 BKN160 BKN250 38/16 A2979 RMK AO2 LTG DSNT N SLP064 FRQ LTGCG DSNT N AND NW CB DSNT N AND NW T03830161 10428 20383 51019

Closest aviation forecast (TAF) to Phoenix Baptist Hospital Heliport

Forecast is more than 12 hours old.

Closest forecast is Phoenix Sky Harbor International Airport, 7.2 nm (13.4 km) SE.

2024/06/24 06:32 Ammendment (retrieved 1 day ago)

TAF AMD KPHX 250532Z 2506/2612 04010G20KT P6SM VCTS BKN100CB BKN200 TEMPO 2506/2507 5SM -TSRA FM250700 08012KT P6SM FEW100 SCT200 FM251100 VRB05KT P6SM SCT120 BKN200 FM251400 25009KT P6SM SCT150